Time;durP1;ratioP1;P1;durP2;ratioP2;P2;SDS_P1;SDS_P2;PMS_P1;PMS_P2;Temp;Humidity;BMP_temperature;BMP_pressure;BME280_temperature;BME280_humidity;BME280_pressure;Samples;Min_cycle;Max_cycle;Signal;HPM_P1;HPM_P2
2023/08/16 00:02:12;;;;;;;3.08;1.23;;;19.00;96.30;;;;;;5034035;28;20057;-79
2023/08/16 00:04:37;;;;;;;3.13;1.20;;;19.00;96.30;;;;;;5036454;28;20049;-79
2023/08/16 00:07:03;;;;;;;2.40;1.30;;;18.90;96.30;;;;;;5054195;28;20040;-79
2023/08/16 00:09:29;;;;;;;2.75;1.20;;;18.80;96.30;;;;;;5044738;28;20045;-79
2023/08/16 00:11:54;;;;;;;2.53;0.98;;;18.80;96.40;;;;;;5034126;28;20064;-79
2023/08/16 00:14:20;;;;;;;2.85;1.20;;;18.70;96.40;;;;;;5034150;28;20492;-78
2023/08/16 00:16:46;;;;;;;2.40;1.05;;;18.60;96.40;;;;;;5034669;28;20042;-79
2023/08/16 00:19:12;;;;;;;3.15;1.30;;;18.50;96.50;;;;;;5040876;28;20475;-80
2023/08/16 00:21:37;;;;;;;3.58;1.20;;;18.50;96.50;;;;;;5034067;28;20053;-79
2023/08/16 00:24:06;;;;;;;2.63;1.20;;;18.40;96.60;;;;;;5048784;28;20076;-79
2023/08/16 00:26:31;;;;;;;4.05;1.10;;;18.40;96.70;;;;;;5050869;28;20055;-79
2023/08/16 00:28:57;;;;;;;3.25;1.42;;;18.40;96.80;;;;;;5044431;28;20034;-79
2023/08/16 00:31:23;;;;;;;3.05;1.40;;;18.30;96.90;;;;;;5033770;28;20103;-79
2023/08/16 00:33:49;;;;;;;3.20;1.10;;;18.30;96.90;;;;;;5040470;28;20402;-79
2023/08/16 00:36:15;;;;;;;3.13;1.20;;;18.30;96.70;;;;;;5046144;28;20041;-79
2023/08/16 00:38:44;;;;;;;2.22;1.40;;;18.20;96.70;;;;;;5033680;28;20045;-79
2023/08/16 00:41:10;;;;;;;3.33;1.40;;;18.20;96.80;;;;;;5032728;28;20103;-79
2023/08/16 00:43:36;;;;;;;3.88;1.58;;;18.20;96.80;;;;;;5033518;28;20041;-78
2023/08/16 00:46:03;;;;;;;3.58;1.52;;;18.20;96.80;;;;;;5031493;28;20037;-80
2023/08/16 00:48:31;;;;;;;3.58;1.30;;;18.10;96.90;;;;;;5048491;28;20049;-79
2023/08/16 00:50:57;;;;;;;3.03;1.55;;;18.00;96.90;;;;;;5038352;28;20049;-80
2023/08/16 00:53:23;;;;;;;3.85;1.30;;;18.00;96.90;;;;;;5049168;28;20103;-79
2023/08/16 00:55:50;;;;;;;3.22;1.30;;;18.00;96.90;;;;;;5032752;28;20407;-79
2023/08/16 00:58:16;;;;;;;3.08;1.20;;;17.90;97.00;;;;;;5042035;28;20049;-79
2023/08/16 01:00:42;;;;;;;4.05;1.38;;;17.90;96.90;;;;;;5032951;28;20049;-79
2023/08/16 01:03:08;;;;;;;3.47;1.40;;;17.80;96.90;;;;;;5033074;28;20045;-79
2023/08/16 01:05:33;;;;;;;4.13;1.30;;;17.80;96.80;;;;;;5032065;28;20034;-79
2023/08/16 01:08:01;;;;;;;2.97;1.20;;;17.70;96.90;;;;;;5033033;28;20049;-79
2023/08/16 01:10:39;;;;;;;2.38;1.20;;;17.60;96.90;;;;;;5033027;28;20049;-79
2023/08/16 01:13:13;;;;;;;2.35;1.10;;;17.60;96.60;;;;;;5032028;28;20053;-79
2023/08/16 01:15:42;;;;;;;3.67;1.60;;;17.50;96.70;;;;;;5031010;28;20049;-79
2023/08/16 01:18:09;;;;;;;3.38;1.33;;;17.40;97.00;;;;;;5032350;28;20519;-79
2023/08/16 01:20:37;;;;;;;2.92;1.20;;;17.40;97.00;;;;;;5032571;28;20051;-79
2023/08/16 01:23:04;;;;;;;2.45;1.30;;;17.30;96.70;;;;;;5032745;28;20037;-79
2023/08/16 01:25:44;;;;;;;3.88;1.25;;;17.30;96.50;;;;;;5032820;28;20092;-79
2023/08/16 01:28:10;;;;;;;3.70;1.40;;;17.20;96.50;;;;;;5013638;28;20081;-79
2023/08/16 01:30:38;;;;;;;2.75;1.30;;;17.10;96.70;;;;;;5019979;28;20057;-79
2023/08/16 01:33:11;;;;;;;3.00;1.20;;;17.10;96.60;;;;;;5032511;28;20037;-79
2023/08/16 01:35:37;;;;;;;2.83;1.40;;;17.00;96.40;;;;;;5034809;28;20049;-78
2023/08/16 01:38:05;;;;;;;2.33;1.17;;;17.00;96.40;;;;;;5037144;28;20053;-79
2023/08/16 01:40:53;;;;;;;2.90;1.40;;;17.00;96.50;;;;;;5036945;28;20056;-79
2023/08/16 01:43:19;;;;;;;2.70;1.20;;;16.90;96.90;;;;;;5037139;28;20047;-79
2023/08/16 01:45:47;;;;;;;3.30;1.40;;;16.90;96.70;;;;;;5034973;28;20045;-78
2023/08/16 01:48:14;;;;;;;5.30;1.50;;;16.90;97.10;;;;;;5036919;28;20056;-79
2023/08/16 01:50:40;;;;;;;4.68;1.65;;;16.80;97.50;;;;;;5035899;28;20081;-79
2023/08/16 01:53:06;;;;;;;2.88;1.35;;;16.80;97.60;;;;;;5036748;28;20052;-79
2023/08/16 01:55:32;;;;;;;3.60;1.70;;;16.80;97.60;;;;;;5036474;28;20091;-79
2023/08/16 01:57:58;;;;;;;2.78;1.50;;;16.80;97.70;;;;;;5035678;28;20057;-77
2023/08/16 02:00:24;;;;;;;2.03;1.20;;;16.70;97.70;;;;;;5035816;28;20041;-77
2023/08/16 02:02:50;;;;;;;2.90;1.38;;;16.70;97.50;;;;;;5034786;28;20447;-78
2023/08/16 02:05:15;;;;;;;2.97;1.50;;;16.70;97.70;;;;;;5035773;28;20455;-78
2023/08/16 02:07:41;;;;;;;2.25;1.20;;;16.70;97.90;;;;;;5033907;28;20103;-78
2023/08/16 02:10:09;;;;;;;2.53;1.10;;;16.60;97.80;;;;;;5034959;28;20506;-79
2023/08/16 02:12:39;;;;;;;3.55;1.20;;;16.60;97.80;;;;;;5033745;28;20052;-78
2023/08/16 02:15:06;;;;;;;2.58;1.33;;;16.60;97.60;;;;;;5035493;28;20045;-78
2023/08/16 02:17:31;;;;;;;3.20;1.30;;;16.60;97.90;;;;;;5035471;28;20396;-78
2023/08/16 02:19:57;;;;;;;2.47;1.20;;;16.50;98.10;;;;;;5035787;28;20053;-79
2023/08/16 02:22:24;;;;;;;1.98;1.08;;;16.50;98.10;;;;;;5018438;28;20052;-79
2023/08/16 02:24:50;;;;;;;2.92;1.35;;;16.50;98.00;;;;;;5034982;28;20041;-78
2023/08/16 02:27:16;;;;;;;1.95;1.00;;;16.40;98.10;;;;;;5039068;28;20049;-79
2023/08/16 02:29:42;;;;;;;2.22;1.20;;;16.40;98.00;;;;;;5035578;28;20511;-79
2023/08/16 02:32:07;;;;;;;2.45;1.23;;;16.40;98.20;;;;;;5036121;28;20059;-79
2023/08/16 02:34:33;;;;;;;2.42;1.23;;;16.40;98.30;;;;;;5034155;28;20037;-79
2023/08/16 02:37:02;;;;;;;2.00;1.23;;;16.30;98.20;;;;;;5035815;28;20045;-79
2023/08/16 02:39:30;;;;;;;1.63;1.08;;;16.30;98.30;;;;;;5034545;28;20275;-79
2023/08/16 02:41:58;;;;;;;2.58;1.20;;;16.30;98.20;;;;;;5036188;28;20045;-79
2023/08/16 02:44:23;;;;;;;2.03;1.30;;;16.30;98.20;;;;;;5035518;28;20131;-79
2023/08/16 02:46:49;;;;;;;2.75;1.23;;;16.30;98.10;;;;;;5033220;28;20447;-78
2023/08/16 02:49:15;;;;;;;3.97;1.40;;;16.20;98.10;;;;;;5046735;28;20048;-78
2023/08/16 02:51:40;;;;;;;2.55;1.27;;;16.20;97.80;;;;;;5035746;28;20041;-79
2023/08/16 02:54:06;;;;;;;2.47;1.25;;;16.20;97.90;;;;;;5033969;28;20064;-78
2023/08/16 02:56:32;;;;;;;3.50;1.42;;;16.10;97.50;;;;;;5034893;28;20534;-79
2023/08/16 02:58:58;;;;;;;3.05;1.50;;;16.10;97.40;;;;;;5035602;28;20066;-79
2023/08/16 03:01:24;;;;;;;3.15;1.42;;;16.00;97.70;;;;;;5034888;28;20053;-79
2023/08/16 03:03:52;;;;;;;2.75;1.48;;;16.00;97.20;;;;;;5050355;28;20056;-78
2023/08/16 03:06:18;;;;;;;4.65;1.50;;;16.00;97.20;;;;;;5041400;28;20526;-79
2023/08/16 03:08:44;;;;;;;2.70;1.45;;;15.90;97.30;;;;;;5035338;28;20037;-79
2023/08/16 03:11:11;;;;;;;3.00;1.52;;;15.90;97.30;;;;;;5034827;28;20120;-79
2023/08/16 03:13:37;;;;;;;3.42;1.70;;;15.80;97.20;;;;;;5034459;28;20066;-79
2023/08/16 03:16:02;;;;;;;2.20;1.33;;;15.80;97.40;;;;;;5034659;28;20068;-79
2023/08/16 03:18:28;;;;;;;2.72;1.30;;;15.80;97.30;;;;;;5035294;28;20510;-79
2023/08/16 03:20:57;;;;;;;3.60;1.50;;;15.70;97.50;;;;;;5042360;28;20041;-78
2023/08/16 03:23:23;;;;;;;3.17;1.45;;;15.70;97.40;;;;;;5038404;28;20041;-79
2023/08/16 03:25:54;;;;;;;2.22;1.30;;;15.70;97.30;;;;;;5034276;28;20372;-79
2023/08/16 03:28:23;;;;;;;2.58;1.48;;;15.60;97.50;;;;;;5034806;28;20055;-79
2023/08/16 03:30:49;;;;;;;3.35;1.70;;;15.60;97.50;;;;;;5033810;28;20045;-79
2023/08/16 03:33:14;;;;;;;2.70;1.40;;;15.60;97.60;;;;;;5033884;28;20128;-79
2023/08/16 03:35:40;;;;;;;2.17;1.35;;;15.60;97.50;;;;;;5034680;28;20077;-79
2023/08/16 03:38:06;;;;;;;3.42;1.90;;;15.50;97.60;;;;;;5034617;28;20060;-79
2023/08/16 03:40:31;;;;;;;2.97;1.58;;;15.40;97.50;;;;;;5034341;28;20049;-79
2023/08/16 03:42:57;;;;;;;2.47;1.60;;;15.50;97.60;;;;;;5034567;28;20438;-79
2023/08/16 03:45:25;;;;;;;3.58;1.67;;;15.40;97.40;;;;;;5035917;28;20516;-79
2023/08/16 03:47:56;;;;;;;2.55;1.75;;;15.40;97.30;;;;;;5043303;28;20515;-79
2023/08/16 03:50:24;;;;;;;2.53;1.52;;;15.40;97.50;;;;;;5032291;28;20483;-79
2023/08/16 03:52:53;;;;;;;2.92;1.75;;;15.30;97.40;;;;;;5034231;28;20048;-79
2023/08/16 03:55:19;;;;;;;3.90;2.00;;;15.30;97.40;;;;;;5034456;28;20124;-79
2023/08/16 03:57:45;;;;;;;3.10;1.80;;;15.30;97.60;;;;;;5014477;28;20145;-79
2023/08/16 04:00:13;;;;;;;2.97;1.75;;;15.30;97.60;;;;;;5029315;28;20042;-79
2023/08/16 04:02:40;;;;;;;3.95;1.88;;;15.30;97.50;;;;;;5032784;28;20037;-78
2023/08/16 04:05:12;;;;;;;3.03;1.80;;;15.20;97.30;;;;;;5014638;28;20100;-80
2023/08/16 04:07:41;;;;;;;3.33;2.00;;;15.20;97.50;;;;;;5031629;28;20128;-79
2023/08/16 04:10:08;;;;;;;3.50;2.28;;;15.20;97.80;;;;;;5033737;28;20095;-79
2023/08/16 04:12:36;;;;;;;2.72;1.80;;;15.20;97.80;;;;;;5034043;28;20073;-79
2023/08/16 04:15:03;;;;;;;2.33;1.60;;;15.20;97.80;;;;;;5035214;28;20365;-79
2023/08/16 04:17:30;;;;;;;2.83;1.98;;;15.10;98.00;;;;;;5048513;28;20487;-79
2023/08/16 04:19:56;;;;;;;3.08;1.92;;;15.10;98.10;;;;;;5033643;28;20049;-79
2023/08/16 04:22:21;;;;;;;3.55;1.92;;;15.10;98.20;;;;;;5031939;28;20203;-79
2023/08/16 04:24:47;;;;;;;3.33;2.00;;;15.10;98.10;;;;;;5032396;28;20041;-78
2023/08/16 04:27:12;;;;;;;4.85;1.88;;;15.10;98.20;;;;;;5041363;28;20057;-79
2023/08/16 04:29:40;;;;;;;3.80;2.10;;;15.10;98.00;;;;;;5033485;28;20042;-78
2023/08/16 04:32:06;;;;;;;3.30;1.90;;;15.10;98.10;;;;;;5029065;28;20195;-79
2023/08/16 04:34:31;;;;;;;3.40;1.90;;;15.10;98.30;;;;;;5032634;28;20562;-79
2023/08/16 04:36:57;;;;;;;3.35;2.00;;;15.10;98.40;;;;;;5048486;28;20041;-79
2023/08/16 04:39:22;;;;;;;3.00;1.80;;;15.10;98.40;;;;;;5033954;28;20041;-79
2023/08/16 04:41:48;;;;;;;3.05;1.80;;;15.00;98.50;;;;;;5049008;28;20068;-79
2023/08/16 04:44:14;;;;;;;3.53;2.05;;;15.00;98.60;;;;;;5033698;28;20046;-79
2023/08/16 04:46:39;;;;;;;4.45;1.98;;;15.00;98.70;;;;;;5048788;28;20041;-79
2023/08/16 04:49:05;;;;;;;3.00;1.55;;;15.00;98.80;;;;;;5033564;28;20049;-79
2023/08/16 04:51:31;;;;;;;2.85;1.80;;;15.00;98.80;;;;;;5031922;28;20487;-79
2023/08/16 04:53:56;;;;;;;2.30;1.50;;;15.00;98.80;;;;;;5033503;28;20037;-79
2023/08/16 04:56:22;;;;;;;2.88;1.60;;;15.00;98.80;;;;;;5032938;28;20395;-79
2023/08/16 04:58:47;;;;;;;3.03;1.58;;;15.00;98.90;;;;;;5033123;28;20503;-79
2023/08/16 05:01:13;;;;;;;2.60;1.35;;;15.00;98.90;;;;;;5032793;28;20045;-79
2023/08/16 05:03:39;;;;;;;2.88;1.52;;;15.00;98.70;;;;;;5033028;28;20407;-79
2023/08/16 05:06:05;;;;;;;2.67;1.40;;;14.90;98.60;;;;;;5032920;28;20045;-79
2023/08/16 05:08:31;;;;;;;2.15;1.33;;;14.90;98.50;;;;;;5033054;28;20120;-79
2023/08/16 05:10:57;;;;;;;3.35;1.60;;;14.90;98.20;;;;;;5047199;28;20180;-79
2023/08/16 05:13:23;;;;;;;3.40;1.50;;;14.80;98.00;;;;;;5034198;28;20037;-78
2023/08/16 05:15:52;;;;;;;2.03;1.33;;;14.80;98.00;;;;;;5031351;28;20408;-79
2023/08/16 05:18:18;;;;;;;2.78;1.48;;;14.80;97.80;;;;;;5031821;28;20099;-79
2023/08/16 05:20:43;;;;;;;3.42;1.75;;;14.80;97.90;;;;;;5031231;28;20045;-79
2023/08/16 05:23:09;;;;;;;2.50;1.50;;;14.80;97.80;;;;;;5032945;28;20120;-79
2023/08/16 05:25:37;;;;;;;2.13;1.33;;;14.80;97.80;;;;;;5033085;28;20038;-79
2023/08/16 05:28:03;;;;;;;2.33;1.50;;;14.70;97.70;;;;;;5032927;28;20415;-79
2023/08/16 05:30:29;;;;;;;3.38;1.60;;;14.70;97.80;;;;;;5035385;28;20045;-79
2023/08/16 05:32:55;;;;;;;2.90;1.48;;;14.70;97.80;;;;;;5031078;28;20041;-79
2023/08/16 05:35:21;;;;;;;2.72;1.52;;;14.70;98.10;;;;;;5031788;28;20041;-79
2023/08/16 05:37:48;;;;;;;2.38;1.30;;;14.70;97.80;;;;;;5039449;28;20055;-79
2023/08/16 05:40:14;;;;;;;2.60;1.60;;;14.70;97.70;;;;;;5032647;28;20060;-79
2023/08/16 05:42:40;;;;;;;3.13;1.40;;;14.70;97.70;;;;;;5032862;28;20060;-79
2023/08/16 05:45:06;;;;;;;2.22;1.40;;;14.70;97.70;;;;;;5048159;28;20077;-79
2023/08/16 05:47:32;;;;;;;1.92;1.20;;;14.70;97.70;;;;;;5044569;28;20114;-79
2023/08/16 05:49:59;;;;;;;2.28;1.50;;;14.70;97.80;;;;;;5052861;28;20483;-79
2023/08/16 05:52:25;;;;;;;2.58;1.50;;;14.70;97.70;;;;;;5035372;28;20413;-79
2023/08/16 05:54:51;;;;;;;2.63;1.48;;;14.60;98.00;;;;;;5032605;28;20049;-79
2023/08/16 05:57:17;;;;;;;1.73;1.20;;;14.70;97.70;;;;;;5027699;28;20034;-78
2023/08/16 05:59:46;;;;;;;2.42;1.38;;;14.70;97.60;;;;;;5027394;28;20053;-79
2023/08/16 06:02:14;;;;;;;2.20;1.25;;;14.70;97.60;;;;;;5042756;28;20498;-79
2023/08/16 06:04:39;;;;;;;1.88;1.20;;;14.70;97.50;;;;;;5032754;28;20048;-79
2023/08/16 06:07:05;;;;;;;2.50;1.40;;;14.70;97.50;;;;;;5037617;28;20400;-79
2023/08/16 06:09:31;;;;;;;3.33;1.40;;;14.70;97.40;;;;;;5031303;28;20045;-79
2023/08/16 06:11:57;;;;;;;3.50;1.58;;;14.70;97.40;;;;;;5046841;28;20053;-80
2023/08/16 06:14:22;;;;;;;3.28;1.50;;;14.70;97.40;;;;;;5032828;28;20052;-79
2023/08/16 06:16:48;;;;;;;2.65;1.38;;;14.70;97.40;;;;;;5032869;28;20049;-79
2023/08/16 06:19:15;;;;;;;2.63;1.50;;;14.70;97.40;;;;;;5030896;28;20042;-79
2023/08/16 06:21:41;;;;;;;2.67;1.30;;;14.70;97.50;;;;;;5032920;28;20060;-78
2023/08/16 06:24:08;;;;;;;3.28;1.30;;;14.70;97.50;;;;;;5035067;28;20046;-79
2023/08/16 06:26:34;;;;;;;2.67;1.30;;;14.80;97.60;;;;;;5025891;28;20048;-79
2023/08/16 06:29:00;;;;;;;2.45;1.50;;;14.80;97.70;;;;;;5039348;28;20045;-79
2023/08/16 06:31:26;;;;;;;2.63;1.27;;;14.80;97.70;;;;;;5035690;28;20048;-79
2023/08/16 06:33:52;;;;;;;2.58;1.30;;;14.90;97.70;;;;;;5036603;28;20046;-79
2023/08/16 06:36:19;;;;;;;2.75;1.50;;;14.90;97.80;;;;;;5038675;28;20106;-79
2023/08/16 06:38:45;;;;;;;2.67;1.40;;;14.90;97.90;;;;;;5044392;28;20048;-79
2023/08/16 06:41:12;;;;;;;2.47;1.48;;;14.90;97.90;;;;;;5051296;28;20380;-79
2023/08/16 06:43:38;;;;;;;2.58;1.50;;;15.00;97.80;;;;;;5034292;28;20053;-81
2023/08/16 06:46:04;;;;;;;2.22;1.38;;;15.00;97.80;;;;;;5045222;28;20041;-80
2023/08/16 06:48:31;;;;;;;2.45;1.30;;;15.00;98.10;;;;;;5040684;28;20068;-80
2023/08/16 06:50:56;;;;;;;2.30;1.20;;;15.10;97.70;;;;;;5036527;28;20084;-80
2023/08/16 06:53:22;;;;;;;2.50;1.40;;;15.10;97.70;;;;;;5034026;28;20477;-80
2023/08/16 06:55:48;;;;;;;2.83;1.50;;;15.20;97.60;;;;;;5034020;28;20161;-81
2023/08/16 06:58:13;;;;;;;2.67;1.58;;;15.20;97.80;;;;;;5033552;28;20095;-81
2023/08/16 07:00:44;;;;;;;2.30;1.40;;;15.20;97.80;;;;;;5033505;28;20045;-81
2023/08/16 07:03:09;;;;;;;7.13;4.22;;;15.20;97.70;;;;;;5040080;28;20456;-76
2023/08/16 07:05:35;;;;;;;4.32;2.63;;;15.30;98.40;;;;;;5035977;28;20076;-81
2023/08/16 07:08:01;;;;;;;3.25;1.60;;;15.30;98.30;;;;;;5027736;28;20063;-81
2023/08/16 07:10:26;;;;;;;2.85;1.60;;;15.40;98.20;;;;;;5026730;28;20095;-80
2023/08/16 07:12:52;;;;;;;3.60;2.15;;;15.40;98.20;;;;;;5025482;28;20046;-80
2023/08/16 07:15:18;;;;;;;3.05;1.50;;;15.50;98.20;;;;;;5027485;28;20061;-80
2023/08/16 07:17:43;;;;;;;3.78;2.05;;;15.50;98.20;;;;;;5033585;28;20053;-81
2023/08/16 07:20:10;;;;;;;6.57;3.08;;;15.60;98.10;;;;;;5017218;28;20046;-79
2023/08/16 07:22:38;;;;;;;3.45;2.10;;;15.70;98.40;;;;;;5020102;28;20050;-80
2023/08/16 07:25:06;;;;;;;4.82;2.13;;;15.70;98.20;;;;;;5023841;28;20038;-81
2023/08/16 07:27:32;;;;;;;3.70;1.90;;;15.80;98.10;;;;;;5023522;28;20495;-83
2023/08/16 07:29:58;;;;;;;5.57;2.90;;;15.90;98.20;;;;;;5033388;28;20140;-82
2023/08/16 07:32:24;;;;;;;7.15;3.67;;;15.90;98.30;;;;;;5032178;28;20212;-80
2023/08/16 07:34:49;;;;;;;7.65;3.05;;;16.10;99.10;;;;;;5033687;28;20103;-81
2023/08/16 07:37:15;;;;;;;11.45;3.97;;;16.20;99.30;;;;;;5019966;28;20053;-80
2023/08/16 07:39:41;;;;;;;8.43;3.85;;;16.20;99.90;;;;;;5040037;28;20360;-81
2023/08/16 07:42:07;;;;;;;4.55;2.33;;;16.30;99.90;;;;;;5038382;28;20056;-81
2023/08/16 07:44:34;;;;;;;5.85;2.50;;;16.50;99.90;;;;;;5033979;28;20046;-80
2023/08/16 07:47:00;;;;;;;6.45;2.72;;;16.60;99.90;;;;;;5029014;28;20058;-80
2023/08/16 07:49:26;;;;;;;9.02;3.22;;;16.70;99.90;;;;;;5025562;28;20507;-80
2023/08/16 07:51:55;;;;;;;5.57;2.15;;;16.80;99.90;;;;;;5033691;28;20115;-80
2023/08/16 07:54:20;;;;;;;6.00;2.10;;;16.90;99.90;;;;;;5033999;28;20094;-80
2023/08/16 07:56:46;;;;;;;4.95;1.60;;;17.00;99.90;;;;;;5033947;28;20446;-80
2023/08/16 07:59:12;;;;;;;7.60;2.00;;;17.20;99.90;;;;;;5034285;28;20052;-80
2023/08/16 08:01:37;;;;;;;6.05;2.10;;;17.30;99.90;;;;;;5033823;28;20442;-81
2023/08/16 08:04:04;;;;;;;5.13;1.75;;;17.40;99.90;;;;;;5033792;28;20476;-80
2023/08/16 08:06:30;;;;;;;5.35;2.20;;;17.50;99.90;;;;;;5033334;28;20495;-80
2023/08/16 08:08:55;;;;;;;6.85;1.92;;;17.60;99.90;;;;;;5034630;28;20042;-80
2023/08/16 08:11:21;;;;;;;7.20;1.70;;;17.70;99.90;;;;;;5034051;28;20047;-80
2023/08/16 08:13:50;;;;;;;5.63;1.73;;;17.80;99.90;;;;;;5032807;28;20475;-80
2023/08/16 08:16:16;;;;;;;5.68;1.58;;;17.90;99.90;;;;;;5033485;28;20052;-80
2023/08/16 08:18:41;;;;;;;7.00;1.70;;;18.00;99.70;;;;;;5033630;28;20042;-80
2023/08/16 08:21:07;;;;;;;5.40;1.80;;;18.10;99.60;;;;;;5033643;28;20046;-80
2023/08/16 08:23:32;;;;;;;3.08;1.20;;;18.20;99.90;;;;;;5047142;28;20053;-80
2023/08/16 08:25:59;;;;;;;4.10;1.17;;;18.30;99.30;;;;;;5033676;28;20533;-80
2023/08/16 08:28:25;;;;;;;5.63;1.42;;;18.40;98.80;;;;;;5015551;28;20054;-80
2023/08/16 08:30:51;;;;;;;5.95;1.40;;;18.50;98.90;;;;;;5015896;28;20056;-81
2023/08/16 08:33:16;;;;;;;6.55;1.60;;;18.60;98.80;;;;;;5034439;28;20072;-79
2023/08/16 08:35:42;;;;;;;3.17;1.10;;;18.70;98.50;;;;;;5032430;28;20044;-80
2023/08/16 08:38:08;;;;;;;3.53;1.25;;;18.80;98.30;;;;;;5033230;28;20124;-80
2023/08/16 08:40:33;;;;;;;3.80;1.05;;;18.90;98.20;;;;;;5049610;28;20037;-80
2023/08/16 08:42:59;;;;;;;3.63;1.23;;;19.00;97.90;;;;;;5035786;28;20048;-80
2023/08/16 08:45:29;;;;;;;3.92;1.27;;;19.10;97.70;;;;;;5036620;28;20056;-81
2023/08/16 08:47:58;;;;;;;4.20;1.08;;;19.20;97.50;;;;;;5034207;28;20045;-81
2023/08/16 08:50:25;;;;;;;4.03;1.00;;;19.30;97.50;;;;;;5032503;28;20483;-80
2023/08/16 08:52:53;;;;;;;4.03;1.10;;;19.40;97.30;;;;;;5031518;28;20045;-81
2023/08/16 08:55:20;;;;;;;5.05;1.05;;;19.50;97.20;;;;;;5033497;28;20115;-81
2023/08/16 08:57:50;;;;;;;4.68;1.05;;;19.50;97.00;;;;;;5030527;28;20404;-81
2023/08/16 09:00:20;;;;;;;4.40;1.15;;;19.60;97.20;;;;;;5032793;28;20530;-80
2023/08/16 09:02:49;;;;;;;4.03;1.10;;;19.70;97.00;;;;;;5037550;28;20056;-80
2023/08/16 09:05:18;;;;;;;4.40;1.17;;;19.80;96.90;;;;;;5041733;28;20064;-81
2023/08/16 09:07:44;;;;;;;2.83;0.90;;;19.90;96.60;;;;;;5032059;28;20042;-80
2023/08/16 09:10:11;;;;;;;5.07;1.10;;;20.00;96.90;;;;;;5033235;28;20052;-80
2023/08/16 09:12:37;;;;;;;5.40;1.27;;;20.00;96.60;;;;;;5032653;28;20041;-81
2023/08/16 09:15:04;;;;;;;4.32;1.08;;;20.10;96.20;;;;;;5032831;28;20555;-80
2023/08/16 09:17:29;;;;;;;3.10;1.00;;;20.20;96.40;;;;;;5036389;28;20053;-80
2023/08/16 09:19:58;;;;;;;2.38;0.90;;;20.30;96.40;;;;;;5032650;28;20121;-80
2023/08/16 09:22:24;;;;;;;2.80;1.00;;;20.40;96.30;;;;;;5032551;28;20499;-81
2023/08/16 09:24:55;;;;;;;2.88;1.08;;;20.50;96.30;;;;;;5032103;28;20053;-80
2023/08/16 09:27:25;;;;;;;3.45;1.08;;;20.60;96.30;;;;;;5033129;28;20041;-80
2023/08/16 09:29:56;;;;;;;3.65;0.90;;;20.60;96.20;;;;;;5032275;28;20049;-80
2023/08/16 09:32:23;;;;;;;2.08;0.70;;;20.70;96.10;;;;;;5032328;28;20043;-80
2023/08/16 09:34:49;;;;;;;3.83;1.00;;;20.80;96.20;;;;;;5032170;28;20535;-80
2023/08/16 09:37:18;;;;;;;2.95;1.02;;;20.90;95.90;;;;;;5032360;28;20483;-80
2023/08/16 09:39:43;;;;;;;3.03;0.80;;;21.00;95.90;;;;;;5031273;28;20121;-80
2023/08/16 09:42:10;;;;;;;2.92;0.90;;;21.10;95.80;;;;;;5037790;28;20116;-80
2023/08/16 09:44:42;;;;;;;2.38;0.80;;;21.20;95.90;;;;;;5048597;28;20075;-80
2023/08/16 09:47:13;;;;;;;2.70;0.88;;;21.20;95.70;;;;;;5030639;28;20087;-80
2023/08/16 09:49:39;;;;;;;2.35;0.85;;;21.30;95.50;;;;;;5032401;28;20060;-80
2023/08/16 09:52:11;;;;;;;5.10;0.80;;;21.40;95.80;;;;;;5032615;28;20091;-80
2023/08/16 09:54:38;;;;;;;4.03;0.90;;;21.50;95.80;;;;;;5031222;28;20049;-79
2023/08/16 09:57:04;;;;;;;3.10;0.93;;;21.60;95.60;;;;;;5047232;28;20422;-80
2023/08/16 09:59:33;;;;;;;3.22;0.90;;;21.60;95.80;;;;;;5035414;28;20065;-82
2023/08/16 10:02:00;;;;;;;2.53;0.90;;;21.70;95.80;;;;;;5036708;28;20503;-82
2023/08/16 10:04:27;;;;;;;2.60;0.80;;;21.80;95.70;;;;;;5036605;28;20037;-82
2023/08/16 10:06:54;;;;;;;2.72;0.77;;;21.90;95.40;;;;;;5038237;28;20125;-82
2023/08/16 10:09:21;;;;;;;2.50;0.70;;;22.00;95.50;;;;;;5036387;28;20050;-81
2023/08/16 10:11:48;;;;;;;4.82;0.95;;;22.10;94.60;;;;;;5036262;28;20049;-82
2023/08/16 10:14:14;;;;;;;3.80;1.13;;;22.10;95.10;;;;;;5036556;28;20507;-82
2023/08/16 10:16:42;;;;;;;2.85;0.75;;;22.20;94.90;;;;;;5036526;28;20053;-82
2023/08/16 10:19:12;;;;;;;3.00;0.80;;;22.30;95.10;;;;;;5036444;28;20088;-82
2023/08/16 10:21:43;;;;;;;2.60;0.73;;;22.40;94.70;;;;;;5036360;28;20060;-82
2023/08/16 10:24:12;;;;;;;2.35;0.80;;;22.50;94.80;;;;;;5036992;28;20059;-82
2023/08/16 10:26:41;;;;;;;2.63;0.73;;;22.50;95.10;;;;;;5055956;28;20063;-82
2023/08/16 10:29:13;;;;;;;3.88;0.90;;;22.60;95.10;;;;;;5055826;28;20056;-82
2023/08/16 10:31:42;;;;;;;3.40;0.90;;;22.70;95.20;;;;;;5055666;28;20598;-82
2023/08/16 10:34:11;;;;;;;3.50;0.90;;;22.70;94.60;;;;;;5055882;28;20075;-82
2023/08/16 10:36:38;;;;;;;2.65;0.80;;;22.80;94.60;;;;;;5041226;28;20116;-82
2023/08/16 10:39:07;;;;;;;3.70;0.90;;;22.90;93.90;;;;;;5029715;28;20045;-82
2023/08/16 10:41:42;;;;;;;2.65;0.98;;;22.90;93.60;;;;;;5023421;28;20064;-82
2023/08/16 10:44:11;;;;;;;3.33;0.82;;;23.00;94.00;;;;;;5042377;28;20128;-82
2023/08/16 10:46:37;;;;;;;2.53;0.73;;;23.10;94.10;;;;;;5032616;28;20084;-82
2023/08/16 10:49:08;;;;;;;2.22;0.80;;;23.10;94.20;;;;;;5026461;28;20083;-82
2023/08/16 10:51:50;;;;;;;2.50;0.80;;;23.20;94.60;;;;;;5034984;28;20038;-82
2023/08/16 10:54:16;;;;;;;1.70;0.70;;;23.30;94.50;;;;;;5020485;28;20075;-82
2023/08/16 10:56:44;;;;;;;2.63;0.80;;;23.40;95.40;;;;;;5029019;28;20052;-82
2023/08/16 10:59:12;;;;;;;1.92;0.65;;;23.40;94.70;;;;;;5025238;28;20053;-82
2023/08/16 11:01:47;;;;;;;3.85;0.77;;;23.50;94.80;;;;;;5032205;28;20100;-82
2023/08/16 11:04:13;;;;;;;2.53;0.75;;;23.60;93.60;;;;;;5025539;28;20041;-82
2023/08/16 11:06:39;;;;;;;3.60;1.10;;;23.70;94.20;;;;;;5028409;28;20092;-82
2023/08/16 11:09:06;;;;;;;2.63;0.75;;;23.70;94.10;;;;;;5032294;28;20136;-82
2023/08/16 11:11:33;;;;;;;2.75;0.82;;;23.90;93.10;;;;;;5037722;28;20099;-82
2023/08/16 11:14:00;;;;;;;2.45;0.90;;;23.90;93.70;;;;;;5034494;28;20495;-82
2023/08/16 11:16:26;;;;;;;3.47;1.00;;;24.00;93.50;;;;;;5028401;28;20052;-82
2023/08/16 11:18:52;;;;;;;2.33;0.77;;;24.10;92.30;;;;;;5027958;28;20573;-82
2023/08/16 11:21:19;;;;;;;2.70;0.90;;;24.10;93.10;;;;;;5030455;28;20125;-81
2023/08/16 11:23:45;;;;;;;3.85;0.80;;;24.10;93.50;;;;;;5030810;28;20565;-82
2023/08/16 11:26:11;;;;;;;3.15;0.63;;;24.20;94.00;;;;;;5014859;28;20046;-82
2023/08/16 11:28:40;;;;;;;2.55;0.63;;;24.30;94.20;;;;;;5034229;28;20070;-81
2023/08/16 11:31:07;;;;;;;3.17;0.82;;;24.40;94.30;;;;;;5029313;28;20042;-82
2023/08/16 11:33:35;;;;;;;2.78;0.80;;;24.50;93.90;;;;;;5025293;28;20120;-82
2023/08/16 11:36:02;;;;;;;4.15;0.95;;;24.50;93.40;;;;;;5030959;28;20050;-81
2023/08/16 11:38:28;;;;;;;1.45;0.70;;;24.50;93.10;;;;;;5033891;28;20084;-81
2023/08/16 11:40:57;;;;;;;3.15;0.70;;;24.60;93.00;;;;;;5033755;28;20084;-82
2023/08/16 11:43:30;;;;;;;3.60;0.77;;;24.60;93.50;;;;;;5034286;28;20046;-81
2023/08/16 11:46:01;;;;;;;1.65;0.70;;;24.70;93.30;;;;;;5033130;28;20045;-82
2023/08/16 11:48:29;;;;;;;3.25;0.70;;;24.70;93.30;;;;;;5032234;28;20096;-82
2023/08/16 11:50:56;;;;;;;3.42;0.90;;;24.80;92.80;;;;;;5033410;28;20495;-82
2023/08/16 11:53:29;;;;;;;2.95;0.77;;;24.90;93.10;;;;;;5034166;28;20045;-82
2023/08/16 11:55:59;;;;;;;2.38;0.80;;;25.00;93.30;;;;;;5034019;28;20103;-82
2023/08/16 11:58:25;;;;;;;2.92;0.80;;;25.10;93.80;;;;;;5034648;28;20053;-81
2023/08/16 12:00:51;;;;;;;2.85;0.80;;;25.20;93.90;;;;;;5033002;28;20112;-82
2023/08/16 12:03:17;;;;;;;2.47;0.63;;;25.30;93.90;;;;;;5033962;28;20153;-82
2023/08/16 12:05:44;;;;;;;1.83;0.68;;;25.30;93.80;;;;;;5033864;28;20053;-82
2023/08/16 12:08:12;;;;;;;3.95;0.98;;;25.40;92.30;;;;;;5032375;28;20060;-82
2023/08/16 12:10:39;;;;;;;2.70;0.70;;;25.40;91.00;;;;;;5034519;28;20053;-82
2023/08/16 12:13:14;;;;;;;4.43;0.93;;;25.40;92.00;;;;;;5032116;28;20053;-82
2023/08/16 12:15:41;;;;;;;2.97;0.90;;;25.50;92.50;;;;;;5036506;28;20045;-81
2023/08/16 12:18:07;;;;;;;3.30;0.90;;;25.60;92.70;;;;;;5032711;28;20071;-81
2023/08/16 12:20:33;;;;;;;5.60;1.17;;;25.70;92.10;;;;;;5033262;28;20149;-82
2023/08/16 12:22:58;;;;;;;3.75;1.00;;;25.70;90.60;;;;;;5033035;28;20037;-81
2023/08/16 12:25:25;;;;;;;3.28;1.10;;;25.70;89.90;;;;;;5032763;28;20535;-82
2023/08/16 12:27:50;;;;;;;2.67;1.00;;;25.70;90.90;;;;;;5032827;28;20044;-82
2023/08/16 12:30:16;;;;;;;4.10;1.17;;;25.80;91.60;;;;;;5032304;28;20415;-82
2023/08/16 12:32:43;;;;;;;2.70;0.90;;;25.80;92.00;;;;;;5034022;28;20055;-81
2023/08/16 12:35:09;;;;;;;5.05;1.17;;;25.90;91.80;;;;;;5030024;28;20057;-82
2023/08/16 12:37:35;;;;;;;2.75;1.00;;;25.90;90.30;;;;;;5039087;28;20044;-82
2023/08/16 12:40:01;;;;;;;3.88;0.85;;;25.90;91.20;;;;;;5032029;28;20491;-82
2023/08/16 12:42:27;;;;;;;2.42;0.77;;;26.00;90.50;;;;;;5032392;28;20052;-82
2023/08/16 12:44:52;;;;;;;3.08;0.95;;;26.10;91.40;;;;;;5032793;28;20045;-82
2023/08/16 12:47:18;;;;;;;2.60;0.70;;;26.10;91.50;;;;;;5031552;28;20502;-80